sensor_id;sensor_type;location;lat;lon;timestamp;temperature;humidity
51914;DHT22;37940;53.002;6.930;2022-11-20T00:01:09;-1.80;99.90
51914;DHT22;37940;53.002;6.930;2022-11-20T00:03:36;-1.70;99.90
51914;DHT22;37940;53.002;6.930;2022-11-20T00:06:03;-1.70;99.90
51914;DHT22;37940;53.002;6.930;2022-11-20T00:08:30;-1.70;99.90
51914;DHT22;37940;53.002;6.930;2022-11-20T00:10:56;-1.70;99.90
51914;DHT22;37940;53.002;6.930;2022-11-20T00:13:21;-1.70;99.90
51914;DHT22;37940;53.002;6.930;2022-11-20T00:15:47;-1.70;99.90
51914;DHT22;37940;53.002;6.930;2022-11-20T00:18:13;-1.60;99.90
51914;DHT22;37940;53.002;6.930;2022-11-20T00:20:39;-1.60;99.90
51914;DHT22;37940;53.002;6.930;2022-11-20T00:23:04;-1.60;99.90
51914;DHT22;37940;53.002;6.930;2022-11-20T00:25:34;-1.60;99.90
51914;DHT22;37940;53.002;6.930;2022-11-20T00:28:01;-1.60;99.90
51914;DHT22;37940;53.002;6.930;2022-11-20T00:30:26;-1.50;99.90
51914;DHT22;37940;53.002;6.930;2022-11-20T00:32:52;-1.50;99.90
51914;DHT22;37940;53.002;6.930;2022-11-20T00:35:17;-1.50;99.90
51914;DHT22;37940;53.002;6.930;2022-11-20T00:37:43;-1.50;99.90
51914;DHT22;37940;53.002;6.930;2022-11-20T00:40:09;-1.50;99.90
51914;DHT22;37940;53.002;6.930;2022-11-20T00:42:35;-1.50;99.90
51914;DHT22;37940;53.002;6.930;2022-11-20T00:45:01;-1.50;99.90
51914;DHT22;37940;53.002;6.930;2022-11-20T00:47:26;-0.90;99.90
51914;DHT22;37940;53.002;6.930;2022-11-20T00:49:52;-1.40;99.90
51914;DHT22;37940;53.002;6.930;2022-11-20T00:52:17;-1.40;99.90
51914;DHT22;37940;53.002;6.930;2022-11-20T00:54:43;-1.40;99.90
51914;DHT22;37940;53.002;6.930;2022-11-20T00:57:09;-1.40;99.90
51914;DHT22;37940;53.002;6.930;2022-11-20T00:59:34;-1.40;99.90
51914;DHT22;37940;53.002;6.930;2022-11-20T01:02:00;-1.40;99.90
51914;DHT22;37940;53.002;6.930;2022-11-20T01:04:26;-1.40;99.90
51914;DHT22;37940;53.002;6.930;2022-11-20T01:06:51;-1.40;99.90
51914;DHT22;37940;53.002;6.930;2022-11-20T01:09:17;-1.40;99.90
51914;DHT22;37940;53.002;6.930;2022-11-20T01:11:44;-1.30;99.90
51914;DHT22;37940;53.002;6.930;2022-11-20T01:14:18;-1.30;99.90
51914;DHT22;37940;53.002;6.930;2022-11-20T01:16:48;-1.30;99.90
51914;DHT22;37940;53.002;6.930;2022-11-20T01:19:22;-1.30;99.90
51914;DHT22;37940;53.002;6.930;2022-11-20T01:21:51;-1.30;99.90
51914;DHT22;37940;53.002;6.930;2022-11-20T01:24:19;-1.30;99.90
51914;DHT22;37940;53.002;6.930;2022-11-20T01:26:47;-1.30;99.90
51914;DHT22;37940;53.002;6.930;2022-11-20T01:29:17;-1.30;99.90
51914;DHT22;37940;53.002;6.930;2022-11-20T01:31:43;-1.30;99.90
51914;DHT22;37940;53.002;6.930;2022-11-20T01:34:12;-1.30;99.90
51914;DHT22;37940;53.002;6.930;2022-11-20T01:36:38;-1.30;99.90
51914;DHT22;37940;53.002;6.930;2022-11-20T01:39:16;-1.30;99.90
51914;DHT22;37940;53.002;6.930;2022-11-20T01:41:43;-0.80;99.90
51914;DHT22;37940;53.002;6.930;2022-11-20T01:44:54;-1.20;99.90
51914;DHT22;37940;53.002;6.930;2022-11-20T01:47:42;-1.20;99.90
51914;DHT22;37940;53.002;6.930;2022-11-20T01:50:18;-1.20;99.90
51914;DHT22;37940;53.002;6.930;2022-11-20T01:52:54;-1.20;99.90
51914;DHT22;37940;53.002;6.930;2022-11-20T01:55:24;-1.20;99.90
51914;DHT22;37940;53.002;6.930;2022-11-20T01:57:51;-1.20;99.90
51914;DHT22;37940;53.002;6.930;2022-11-20T02:00:19;-1.20;99.90
51914;DHT22;37940;53.002;6.930;2022-11-20T02:02:58;-0.90;99.90
51914;DHT22;37940;53.002;6.930;2022-11-20T02:05:28;-1.20;99.90
51914;DHT22;37940;53.002;6.930;2022-11-20T02:07:58;-1.20;99.90
51914;DHT22;37940;53.002;6.930;2022-11-20T02:10:26;-1.20;99.90
51914;DHT22;37940;53.002;6.930;2022-11-20T02:12:53;-1.20;99.90
51914;DHT22;37940;53.002;6.930;2022-11-20T02:15:37;-1.10;99.90
51914;DHT22;37940;53.002;6.930;2022-11-20T02:18:03;-1.10;99.90
51914;DHT22;37940;53.002;6.930;2022-11-20T02:20:29;-1.10;99.90
51914;DHT22;37940;53.002;6.930;2022-11-20T02:22:59;-1.10;99.90
51914;DHT22;37940;53.002;6.930;2022-11-20T02:25:29;-1.10;99.90
51914;DHT22;37940;53.002;6.930;2022-11-20T02:27:56;-1.10;99.90
51914;DHT22;37940;53.002;6.930;2022-11-20T02:30:22;-1.10;99.90
51914;DHT22;37940;53.002;6.930;2022-11-20T02:32:48;-1.10;99.90
51914;DHT22;37940;53.002;6.930;2022-11-20T02:37:48;-1.00;99.90
51914;DHT22;37940;53.002;6.930;2022-11-20T02:40:14;-1.00;99.90
51914;DHT22;37940;53.002;6.930;2022-11-20T02:42:40;-0.50;99.90
51914;DHT22;37940;53.002;6.930;2022-11-20T02:45:06;-1.00;99.90
51914;DHT22;37940;53.002;6.930;2022-11-20T02:47:32;-1.00;99.90
51914;DHT22;37940;53.002;6.930;2022-11-20T02:49:58;-1.00;99.90
51914;DHT22;37940;53.002;6.930;2022-11-20T02:52:24;-1.00;99.90
51914;DHT22;37940;53.002;6.930;2022-11-20T02:54:50;-1.00;99.90
51914;DHT22;37940;53.002;6.930;2022-11-20T02:57:16;-1.00;99.90
51914;DHT22;37940;53.002;6.930;2022-11-20T02:59:42;-1.00;99.90
51914;DHT22;37940;53.002;6.930;2022-11-20T03:02:07;-0.90;99.90
51914;DHT22;37940;53.002;6.930;2022-11-20T03:04:33;-0.90;99.90
51914;DHT22;37940;53.002;6.930;2022-11-20T03:06:59;-0.90;99.90
51914;DHT22;37940;53.002;6.930;2022-11-20T03:09:24;-0.90;99.90
51914;DHT22;37940;53.002;6.930;2022-11-20T03:11:50;-0.60;99.90
51914;DHT22;37940;53.002;6.930;2022-11-20T03:14:16;-0.90;99.90
51914;DHT22;37940;53.002;6.930;2022-11-20T03:16:42;-0.60;99.90
51914;DHT22;37940;53.002;6.930;2022-11-20T03:19:08;-0.90;99.90
51914;DHT22;37940;53.002;6.930;2022-11-20T03:21:34;-0.90;99.90
51914;DHT22;37940;53.002;6.930;2022-11-20T03:24:00;-0.90;99.90
51914;DHT22;37940;53.002;6.930;2022-11-20T03:26:26;-0.90;99.90
51914;DHT22;37940;53.002;6.930;2022-11-20T03:29:00;-0.90;99.90
51914;DHT22;37940;53.002;6.930;2022-11-20T03:31:35;-0.90;99.90
51914;DHT22;37940;53.002;6.930;2022-11-20T03:34:02;-0.80;99.90
51914;DHT22;37940;53.002;6.930;2022-11-20T03:36:28;-0.80;99.90
51914;DHT22;37940;53.002;6.930;2022-11-20T03:38:55;-0.80;99.90
51914;DHT22;37940;53.002;6.930;2022-11-20T03:41:26;-0.80;99.90
51914;DHT22;37940;53.002;6.930;2022-11-20T03:44:00;-0.80;99.90
51914;DHT22;37940;53.002;6.930;2022-11-20T03:46:27;-0.80;99.90
51914;DHT22;37940;53.002;6.930;2022-11-20T03:48:54;-0.80;99.90
51914;DHT22;37940;53.002;6.930;2022-11-20T03:51:22;-0.80;99.90
51914;DHT22;37940;53.002;6.930;2022-11-20T03:53:50;-0.80;99.90
51914;DHT22;37940;53.002;6.930;2022-11-20T03:56:18;-0.80;99.90
51914;DHT22;37940;53.002;6.930;2022-11-20T03:58:44;-0.80;99.90
51914;DHT22;37940;53.002;6.930;2022-11-20T04:01:19;0.20;99.90
51914;DHT22;37940;53.002;6.930;2022-11-20T04:03:45;-0.80;99.90
51914;DHT22;37940;53.002;6.930;2022-11-20T04:06:17;-0.80;99.90
51914;DHT22;37940;53.002;6.930;2022-11-20T04:08:43;-0.80;99.90
51914;DHT22;37940;53.002;6.930;2022-11-20T04:11:12;-0.80;99.90
51914;DHT22;37940;53.002;6.930;2022-11-20T04:13:39;-0.80;99.90
51914;DHT22;37940;53.002;6.930;2022-11-20T04:16:06;-0.70;99.90
51914;DHT22;37940;53.002;6.930;2022-11-20T04:18:32;-0.70;99.90
51914;DHT22;37940;53.002;6.930;2022-11-20T04:20:59;-0.70;99.90
51914;DHT22;37940;53.002;6.930;2022-11-20T04:23:25;-0.70;99.90
51914;DHT22;37940;53.002;6.930;2022-11-20T04:25:51;-0.70;99.90
51914;DHT22;37940;53.002;6.930;2022-11-20T04:28:17;-0.70;99.90
51914;DHT22;37940;53.002;6.930;2022-11-20T04:30:42;-0.70;99.90
51914;DHT22;37940;53.002;6.930;2022-11-20T04:33:08;-0.70;99.90
51914;DHT22;37940;53.002;6.930;2022-11-20T04:35:35;-0.70;99.90
51914;DHT22;37940;53.002;6.930;2022-11-20T04:38:01;-0.70;99.90
51914;DHT22;37940;53.002;6.930;2022-11-20T04:40:28;-0.70;99.90
51914;DHT22;37940;53.002;6.930;2022-11-20T04:42:54;-0.70;99.90
51914;DHT22;37940;53.002;6.930;2022-11-20T04:45:20;-0.70;99.90
51914;DHT22;37940;53.002;6.930;2022-11-20T04:47:46;-0.70;99.90
51914;DHT22;37940;53.002;6.930;2022-11-20T04:50:11;-0.70;99.90
51914;DHT22;37940;53.002;6.930;2022-11-20T04:52:37;-0.70;99.90
51914;DHT22;37940;53.002;6.930;2022-11-20T04:55:03;-0.70;99.90
51914;DHT22;37940;53.002;6.930;2022-11-20T04:57:29;-0.70;99.90
51914;DHT22;37940;53.002;6.930;2022-11-20T04:59:54;-0.60;99.90
51914;DHT22;37940;53.002;6.930;2022-11-20T05:02:20;-0.60;99.90
51914;DHT22;37940;53.002;6.930;2022-11-20T05:04:46;-0.60;99.90
51914;DHT22;37940;53.002;6.930;2022-11-20T05:07:12;-0.60;99.90
51914;DHT22;37940;53.002;6.930;2022-11-20T05:09:37;-0.70;99.90
51914;DHT22;37940;53.002;6.930;2022-11-20T05:12:03;-0.40;99.90
51914;DHT22;37940;53.002;6.930;2022-11-20T05:14:29;-0.60;99.90
51914;DHT22;37940;53.002;6.930;2022-11-20T05:16:55;-0.60;99.90
51914;DHT22;37940;53.002;6.930;2022-11-20T05:19:21;-0.60;99.90
51914;DHT22;37940;53.002;6.930;2022-11-20T05:21:46;0.10;99.90
51914;DHT22;37940;53.002;6.930;2022-11-20T05:24:12;-0.60;99.90
51914;DHT22;37940;53.002;6.930;2022-11-20T05:26:38;-0.60;99.90
51914;DHT22;37940;53.002;6.930;2022-11-20T05:29:03;-0.60;99.90
51914;DHT22;37940;53.002;6.930;2022-11-20T05:31:29;-0.60;99.90
51914;DHT22;37940;53.002;6.930;2022-11-20T05:33:56;-0.60;99.90
51914;DHT22;37940;53.002;6.930;2022-11-20T05:36:22;-0.60;99.90
51914;DHT22;37940;53.002;6.930;2022-11-20T05:38:48;-0.60;99.90
51914;DHT22;37940;53.002;6.930;2022-11-20T05:41:16;-0.60;99.90
51914;DHT22;37940;53.002;6.930;2022-11-20T05:43:43;-0.60;99.90
51914;DHT22;37940;53.002;6.930;2022-11-20T05:46:11;-0.60;99.90
51914;DHT22;37940;53.002;6.930;2022-11-20T05:48:39;-0.60;99.90
51914;DHT22;37940;53.002;6.930;2022-11-20T05:51:07;-0.60;99.90
51914;DHT22;37940;53.002;6.930;2022-11-20T05:53:34;-0.60;99.90
51914;DHT22;37940;53.002;6.930;2022-11-20T05:56:05;-0.60;99.90
51914;DHT22;37940;53.002;6.930;2022-11-20T05:58:32;-0.60;99.90
51914;DHT22;37940;53.002;6.930;2022-11-20T06:03:43;-0.60;99.90
51914;DHT22;37940;53.002;6.930;2022-11-20T06:06:11;-0.60;99.90
51914;DHT22;37940;53.002;6.930;2022-11-20T06:08:37;-0.60;99.90
51914;DHT22;37940;53.002;6.930;2022-11-20T06:11:05;-0.60;99.90
51914;DHT22;37940;53.002;6.930;2022-11-20T06:13:31;-0.60;99.90
51914;DHT22;37940;53.002;6.930;2022-11-20T06:15:57;-0.60;99.90
51914;DHT22;37940;53.002;6.930;2022-11-20T06:18:23;-0.60;99.90
51914;DHT22;37940;53.002;6.930;2022-11-20T06:20:48;0.20;99.90
51914;DHT22;37940;53.002;6.930;2022-11-20T06:23:14;0.20;99.90
51914;DHT22;37940;53.002;6.930;2022-11-20T06:25:41;-0.50;99.90
51914;DHT22;37940;53.002;6.930;2022-11-20T06:28:07;-0.60;99.90
51914;DHT22;37940;53.002;6.930;2022-11-20T06:30:33;-0.60;99.90
51914;DHT22;37940;53.002;6.930;2022-11-20T06:32:59;-0.60;99.90
51914;DHT22;37940;53.002;6.930;2022-11-20T06:35:24;-0.60;99.90
51914;DHT22;37940;53.002;6.930;2022-11-20T06:37:50;-0.60;99.90
51914;DHT22;37940;53.002;6.930;2022-11-20T06:40:16;-0.60;99.90
51914;DHT22;37940;53.002;6.930;2022-11-20T06:42:41;-0.60;99.90
51914;DHT22;37940;53.002;6.930;2022-11-20T06:45:08;-0.60;99.90
51914;DHT22;37940;53.002;6.930;2022-11-20T06:47:34;-0.60;99.90
51914;DHT22;37940;53.002;6.930;2022-11-20T06:49:59;-0.60;99.90
51914;DHT22;37940;53.002;6.930;2022-11-20T06:52:25;-0.50;99.90
51914;DHT22;37940;53.002;6.930;2022-11-20T06:54:51;-0.50;99.90
51914;DHT22;37940;53.002;6.930;2022-11-20T06:57:16;-0.50;99.90
51914;DHT22;37940;53.002;6.930;2022-11-20T06:59:42;-0.50;99.90
51914;DHT22;37940;53.002;6.930;2022-11-20T07:02:12;-0.50;99.90
51914;DHT22;37940;53.002;6.930;2022-11-20T07:04:38;-0.50;99.90
51914;DHT22;37940;53.002;6.930;2022-11-20T07:07:04;-0.50;99.90
51914;DHT22;37940;53.002;6.930;2022-11-20T07:09:31;-0.50;99.90
51914;DHT22;37940;53.002;6.930;2022-11-20T07:11:57;-0.50;99.90
51914;DHT22;37940;53.002;6.930;2022-11-20T07:14:23;-0.50;99.90
51914;DHT22;37940;53.002;6.930;2022-11-20T07:16:49;-0.50;99.90
51914;DHT22;37940;53.002;6.930;2022-11-20T07:19:14;-0.50;99.90
51914;DHT22;37940;53.002;6.930;2022-11-20T07:21:40;-0.50;99.90
51914;DHT22;37940;53.002;6.930;2022-11-20T07:24:06;-0.40;99.90
51914;DHT22;37940;53.002;6.930;2022-11-20T07:26:32;-0.40;99.90
51914;DHT22;37940;53.002;6.930;2022-11-20T07:28:57;-0.40;99.90
51914;DHT22;37940;53.002;6.930;2022-11-20T07:31:23;-0.40;99.90
51914;DHT22;37940;53.002;6.930;2022-11-20T07:33:49;-0.40;99.90
51914;DHT22;37940;53.002;6.930;2022-11-20T07:36:14;-0.40;99.90
51914;DHT22;37940;53.002;6.930;2022-11-20T07:38:40;-0.40;99.90
51914;DHT22;37940;53.002;6.930;2022-11-20T07:41:06;-0.30;99.90
51914;DHT22;37940;53.002;6.930;2022-11-20T07:43:31;-0.30;99.90
51914;DHT22;37940;53.002;6.930;2022-11-20T07:45:59;-0.30;99.90
51914;DHT22;37940;53.002;6.930;2022-11-20T07:48:25;-0.30;99.90
51914;DHT22;37940;53.002;6.930;2022-11-20T07:50:57;-0.30;99.90
51914;DHT22;37940;53.002;6.930;2022-11-20T07:53:23;-0.30;99.90
51914;DHT22;37940;53.002;6.930;2022-11-20T07:55:49;-0.20;99.90
51914;DHT22;37940;53.002;6.930;2022-11-20T07:58:14;0.50;99.90
51914;DHT22;37940;53.002;6.930;2022-11-20T08:00:41;-0.20;99.90
51914;DHT22;37940;53.002;6.930;2022-11-20T08:03:07;-0.10;99.90
51914;DHT22;37940;53.002;6.930;2022-11-20T08:05:33;-0.10;99.90
51914;DHT22;37940;53.002;6.930;2022-11-20T08:07:58;-0.10;99.90
51914;DHT22;37940;53.002;6.930;2022-11-20T08:10:24;-0.10;99.90
51914;DHT22;37940;53.002;6.930;2022-11-20T08:12:51;-0.10;99.90
51914;DHT22;37940;53.002;6.930;2022-11-20T08:15:37;0.50;99.90
51914;DHT22;37940;53.002;6.930;2022-11-20T08:18:05;0.00;99.90
51914;DHT22;37940;53.002;6.930;2022-11-20T08:20:31;0.00;99.90
51914;DHT22;37940;53.002;6.930;2022-11-20T08:22:58;0.00;99.90
51914;DHT22;37940;53.002;6.930;2022-11-20T08:25:25;0.00;99.90
51914;DHT22;37940;53.002;6.930;2022-11-20T08:27:51;1.10;99.90
51914;DHT22;37940;53.002;6.930;2022-11-20T08:30:17;0.10;99.90
51914;DHT22;37940;53.002;6.930;2022-11-20T08:32:43;0.10;99.90
51914;DHT22;37940;53.002;6.930;2022-11-20T08:35:08;0.40;99.90
51914;DHT22;37940;53.002;6.930;2022-11-20T08:37:34;0.20;99.90
51914;DHT22;37940;53.002;6.930;2022-11-20T08:40:00;0.20;99.90
51914;DHT22;37940;53.002;6.930;2022-11-20T08:42:26;0.20;99.90
51914;DHT22;37940;53.002;6.930;2022-11-20T08:44:51;0.20;99.90
51914;DHT22;37940;53.002;6.930;2022-11-20T08:47:17;0.90;99.90
51914;DHT22;37940;53.002;6.930;2022-11-20T08:49:43;0.20;99.90
51914;DHT22;37940;53.002;6.930;2022-11-20T08:52:08;0.30;99.90
51914;DHT22;37940;53.002;6.930;2022-11-20T08:54:34;0.20;99.90
51914;DHT22;37940;53.002;6.930;2022-11-20T08:56:59;0.20;99.90
51914;DHT22;37940;53.002;6.930;2022-11-20T08:59:25;0.30;99.90
51914;DHT22;37940;53.002;6.930;2022-11-20T09:01:51;0.30;99.90
51914;DHT22;37940;53.002;6.930;2022-11-20T09:04:17;1.20;99.90
51914;DHT22;37940;53.002;6.930;2022-11-20T09:06:42;0.30;99.90
51914;DHT22;37940;53.002;6.930;2022-11-20T09:09:08;0.30;99.90
51914;DHT22;37940;53.002;6.930;2022-11-20T09:11:34;0.40;99.90
51914;DHT22;37940;53.002;6.930;2022-11-20T09:14:01;0.40;99.90
51914;DHT22;37940;53.002;6.930;2022-11-20T09:16:28;0.40;99.90
51914;DHT22;37940;53.002;6.930;2022-11-20T09:18:53;0.50;99.90
51914;DHT22;37940;53.002;6.930;2022-11-20T09:21:19;0.50;99.90
51914;DHT22;37940;53.002;6.930;2022-11-20T09:23:45;0.60;99.90
51914;DHT22;37940;53.002;6.930;2022-11-20T09:26:13;0.60;99.90
51914;DHT22;37940;53.002;6.930;2022-11-20T09:28:39;0.60;99.90
51914;DHT22;37940;53.002;6.930;2022-11-20T09:31:13;0.70;99.90
51914;DHT22;37940;53.002;6.930;2022-11-20T09:33:43;0.70;99.90
51914;DHT22;37940;53.002;6.930;2022-11-20T09:36:08;1.60;99.90
51914;DHT22;37940;53.002;6.930;2022-11-20T09:38:34;0.80;99.90
51914;DHT22;37940;53.002;6.930;2022-11-20T09:41:05;0.90;99.90
51914;DHT22;37940;53.002;6.930;2022-11-20T09:43:53;0.90;99.90
51914;DHT22;37940;53.002;6.930;2022-11-20T09:46:28;0.90;99.90
51914;DHT22;37940;53.002;6.930;2022-11-20T09:52:01;1.00;99.90
51914;DHT22;37940;53.002;6.930;2022-11-20T09:54:37;1.10;99.90
51914;DHT22;37940;53.002;6.930;2022-11-20T09:57:11;1.10;99.90
51914;DHT22;37940;53.002;6.930;2022-11-20T09:59:40;1.20;99.90
51914;DHT22;37940;53.002;6.930;2022-11-20T10:02:37;1.20;99.90
51914;DHT22;37940;53.002;6.930;2022-11-20T10:10:34;1.40;99.90
51914;DHT22;37940;53.002;6.930;2022-11-20T10:13:14;1.40;99.90
51914;DHT22;37940;53.002;6.930;2022-11-20T10:18:51;1.50;99.90
51914;DHT22;37940;53.002;6.930;2022-11-20T10:24:51;1.50;99.90
51914;DHT22;37940;53.002;6.930;2022-11-20T10:32:34;1.60;99.90
51914;DHT22;37940;53.002;6.930;2022-11-20T10:37:42;1.70;99.90
51914;DHT22;37940;53.002;6.930;2022-11-20T10:42:47;1.90;99.90
51914;DHT22;37940;53.002;6.930;2022-11-20T10:51:26;2.10;99.90
51914;DHT22;37940;53.002;6.930;2022-11-20T10:56:53;2.30;99.90
51914;DHT22;37940;53.002;6.930;2022-11-20T10:59:45;2.30;99.90
51914;DHT22;37940;53.002;6.930;2022-11-20T11:02:21;2.30;99.90
51914;DHT22;37940;53.002;6.930;2022-11-20T11:04:49;2.30;99.90
51914;DHT22;37940;53.002;6.930;2022-11-20T11:07:25;2.30;99.90
51914;DHT22;37940;53.002;6.930;2022-11-20T11:09:55;2.30;99.90
51914;DHT22;37940;53.002;6.930;2022-11-20T11:12:23;2.40;99.90
51914;DHT22;37940;53.002;6.930;2022-11-20T11:14:56;2.40;99.90
51914;DHT22;37940;53.002;6.930;2022-11-20T11:17:29;2.40;99.90
51914;DHT22;37940;53.002;6.930;2022-11-20T11:22:44;2.40;99.90
51914;DHT22;37940;53.002;6.930;2022-11-20T11:25:24;2.40;99.90
51914;DHT22;37940;53.002;6.930;2022-11-20T11:27:51;2.80;99.90
51914;DHT22;37940;53.002;6.930;2022-11-20T11:30:18;2.70;99.90
51914;DHT22;37940;53.002;6.930;2022-11-20T11:32:44;2.50;99.90
51914;DHT22;37940;53.002;6.930;2022-11-20T11:35:23;2.70;99.90
51914;DHT22;37940;53.002;6.930;2022-11-20T11:37:49;2.50;99.90
51914;DHT22;37940;53.002;6.930;2022-11-20T11:40:18;2.50;99.90
51914;DHT22;37940;53.002;6.930;2022-11-20T11:42:50;2.50;99.90
51914;DHT22;37940;53.002;6.930;2022-11-20T11:45:18;2.50;99.90
51914;DHT22;37940;53.002;6.930;2022-11-20T11:47:46;2.50;99.90
51914;DHT22;37940;53.002;6.930;2022-11-20T11:50:21;2.40;99.90
51914;DHT22;37940;53.002;6.930;2022-11-20T11:53:01;2.40;99.90
51914;DHT22;37940;53.002;6.930;2022-11-20T11:55:43;2.40;99.90
51914;DHT22;37940;53.002;6.930;2022-11-20T12:01:29;2.40;99.90
51914;DHT22;37940;53.002;6.930;2022-11-20T12:06:27;2.00;99.90
51914;DHT22;37940;53.002;6.930;2022-11-20T12:09:01;2.40;99.90
51914;DHT22;37940;53.002;6.930;2022-11-20T12:12:05;2.40;99.90
51914;DHT22;37940;53.002;6.930;2022-11-20T12:17:11;2.40;99.90
51914;DHT22;37940;53.002;6.930;2022-11-20T12:19:37;2.30;99.90
51914;DHT22;37940;53.002;6.930;2022-11-20T12:25:15;2.20;99.90
51914;DHT22;37940;53.002;6.930;2022-11-20T12:30:23;2.10;99.90
51914;DHT22;37940;53.002;6.930;2022-11-20T12:32:54;2.10;99.90
51914;DHT22;37940;53.002;6.930;2022-11-20T12:38:29;2.30;99.90
51914;DHT22;37940;53.002;6.930;2022-11-20T12:41:29;2.40;99.90
51914;DHT22;37940;53.002;6.930;2022-11-20T12:48:01;2.60;99.90
51914;DHT22;37940;53.002;6.930;2022-11-20T12:58:49;3.10;99.90
51914;DHT22;37940;53.002;6.930;2022-11-20T13:01:32;3.30;99.90
51914;DHT22;37940;53.002;6.930;2022-11-20T13:06:57;3.00;99.90
51914;DHT22;37940;53.002;6.930;2022-11-20T13:09:23;2.90;99.90
51914;DHT22;37940;53.002;6.930;2022-11-20T13:18:10;2.90;99.90
51914;DHT22;37940;53.002;6.930;2022-11-20T13:20:41;3.00;99.90
51914;DHT22;37940;53.002;6.930;2022-11-20T13:23:08;3.00;99.90
51914;DHT22;37940;53.002;6.930;2022-11-20T13:25:36;2.90;99.90
51914;DHT22;37940;53.002;6.930;2022-11-20T13:28:26;2.90;99.90
51914;DHT22;37940;53.002;6.930;2022-11-20T13:30:54;2.90;99.90
51914;DHT22;37940;53.002;6.930;2022-11-20T13:33:32;2.90;99.90
51914;DHT22;37940;53.002;6.930;2022-11-20T13:36:07;3.50;99.90
51914;DHT22;37940;53.002;6.930;2022-11-20T13:38:54;2.90;99.90
51914;DHT22;37940;53.002;6.930;2022-11-20T13:41:32;2.80;99.90
51914;DHT22;37940;53.002;6.930;2022-11-20T13:44:35;2.80;99.90
51914;DHT22;37940;53.002;6.930;2022-11-20T13:47:03;2.70;99.90
51914;DHT22;37940;53.002;6.930;2022-11-20T13:49:39;2.70;99.90
51914;DHT22;37940;53.002;6.930;2022-11-20T13:52:50;2.60;99.90
51914;DHT22;37940;53.002;6.930;2022-11-20T14:01:15;2.60;99.90
51914;DHT22;37940;53.002;6.930;2022-11-20T14:03:42;2.50;99.90
51914;DHT22;37940;53.002;6.930;2022-11-20T14:06:14;2.50;99.90
51914;DHT22;37940;53.002;6.930;2022-11-20T14:08:47;2.40;99.90
51914;DHT22;37940;53.002;6.930;2022-11-20T14:11:19;2.40;99.90
51914;DHT22;37940;53.002;6.930;2022-11-20T14:16:21;2.30;99.90
51914;DHT22;37940;53.002;6.930;2022-11-20T14:18:47;2.30;99.90
51914;DHT22;37940;53.002;6.930;2022-11-20T14:21:25;2.30;99.90
51914;DHT22;37940;53.002;6.930;2022-11-20T14:24:03;2.30;99.90
51914;DHT22;37940;53.002;6.930;2022-11-20T14:26:29;2.30;99.90
51914;DHT22;37940;53.002;6.930;2022-11-20T14:28:55;2.20;99.90
51914;DHT22;37940;53.002;6.930;2022-11-20T14:31:25;2.30;99.90
51914;DHT22;37940;53.002;6.930;2022-11-20T14:33:53;2.20;99.90
51914;DHT22;37940;53.002;6.930;2022-11-20T14:36:22;2.20;99.90
51914;DHT22;37940;53.002;6.930;2022-11-20T14:38:49;2.10;99.90
51914;DHT22;37940;53.002;6.930;2022-11-20T14:41:22;2.10;99.90
51914;DHT22;37940;53.002;6.930;2022-11-20T14:43:58;2.00;99.90
51914;DHT22;37940;53.002;6.930;2022-11-20T14:46:24;1.90;99.90
51914;DHT22;37940;53.002;6.930;2022-11-20T14:48:55;1.90;99.90
51914;DHT22;37940;53.002;6.930;2022-11-20T14:51:35;1.80;99.90
51914;DHT22;37940;53.002;6.930;2022-11-20T14:54:10;1.80;99.90
51914;DHT22;37940;53.002;6.930;2022-11-20T14:56:36;1.70;99.90
51914;DHT22;37940;53.002;6.930;2022-11-20T14:59:02;1.70;99.90
51914;DHT22;37940;53.002;6.930;2022-11-20T15:01:29;1.70;99.90
51914;DHT22;37940;53.002;6.930;2022-11-20T15:04:05;1.60;99.90
51914;DHT22;37940;53.002;6.930;2022-11-20T15:06:32;1.60;99.90
51914;DHT22;37940;53.002;6.930;2022-11-20T15:08:57;1.50;99.90
51914;DHT22;37940;53.002;6.930;2022-11-20T15:11:31;1.50;99.90
51914;DHT22;37940;53.002;6.930;2022-11-20T15:14:02;1.40;99.90
51914;DHT22;37940;53.002;6.930;2022-11-20T15:16:29;1.40;99.90
51914;DHT22;37940;53.002;6.930;2022-11-20T15:18:55;1.30;99.90
51914;DHT22;37940;53.002;6.930;2022-11-20T15:21:21;2.40;99.90
51914;DHT22;37940;53.002;6.930;2022-11-20T15:23:47;1.20;99.90
51914;DHT22;37940;53.002;6.930;2022-11-20T15:26:17;1.20;99.90
51914;DHT22;37940;53.002;6.930;2022-11-20T15:28:45;1.30;99.90
51914;DHT22;37940;53.002;6.930;2022-11-20T15:31:15;1.10;99.90
51914;DHT22;37940;53.002;6.930;2022-11-20T15:33:41;1.10;99.90
51914;DHT22;37940;53.002;6.930;2022-11-20T15:36:06;1.30;99.90
51914;DHT22;37940;53.002;6.930;2022-11-20T15:38:32;1.00;99.90
51914;DHT22;37940;53.002;6.930;2022-11-20T15:40:58;1.00;99.90
51914;DHT22;37940;53.002;6.930;2022-11-20T15:43:23;1.00;99.90
51914;DHT22;37940;53.002;6.930;2022-11-20T15:46:06;0.90;99.90
51914;DHT22;37940;53.002;6.930;2022-11-20T15:48:43;0.90;99.90
51914;DHT22;37940;53.002;6.930;2022-11-20T15:53:39;0.90;99.90
51914;DHT22;37940;53.002;6.930;2022-11-20T15:56:06;0.90;99.90
51914;DHT22;37940;53.002;6.930;2022-11-20T15:58:34;0.90;99.90
51914;DHT22;37940;53.002;6.930;2022-11-20T16:00:59;0.90;99.90
51914;DHT22;37940;53.002;6.930;2022-11-20T16:03:25;2.10;99.90
51914;DHT22;37940;53.002;6.930;2022-11-20T16:05:51;1.00;99.90
51914;DHT22;37940;53.002;6.930;2022-11-20T16:08:16;1.70;99.90
51914;DHT22;37940;53.002;6.930;2022-11-20T16:10:42;1.20;99.90
51914;DHT22;37940;53.002;6.930;2022-11-20T16:13:15;1.00;99.90
51914;DHT22;37940;53.002;6.930;2022-11-20T16:16:02;1.60;99.90
51914;DHT22;37940;53.002;6.930;2022-11-20T16:18:31;0.90;99.90
51914;DHT22;37940;53.002;6.930;2022-11-20T16:20:57;1.70;99.90
51914;DHT22;37940;53.002;6.930;2022-11-20T16:23:23;1.00;99.90
51914;DHT22;37940;53.002;6.930;2022-11-20T16:25:49;1.00;99.90
51914;DHT22;37940;53.002;6.930;2022-11-20T16:28:16;1.00;99.90
51914;DHT22;37940;53.002;6.930;2022-11-20T16:30:41;1.00;99.90
51914;DHT22;37940;53.002;6.930;2022-11-20T16:33:12;1.10;99.90
51914;DHT22;37940;53.002;6.930;2022-11-20T16:35:39;1.00;99.90
51914;DHT22;37940;53.002;6.930;2022-11-20T16:38:05;1.00;99.90
51914;DHT22;37940;53.002;6.930;2022-11-20T16:40:31;1.00;99.90
51914;DHT22;37940;53.002;6.930;2022-11-20T16:42:57;1.00;99.90
51914;DHT22;37940;53.002;6.930;2022-11-20T16:45:25;1.00;99.90
51914;DHT22;37940;53.002;6.930;2022-11-20T16:47:50;1.00;99.90
51914;DHT22;37940;53.002;6.930;2022-11-20T16:50:16;1.00;99.90
51914;DHT22;37940;53.002;6.930;2022-11-20T16:52:42;1.00;99.90
51914;DHT22;37940;53.002;6.930;2022-11-20T16:55:08;1.00;99.90
51914;DHT22;37940;53.002;6.930;2022-11-20T16:57:33;1.00;99.90
51914;DHT22;37940;53.002;6.930;2022-11-20T17:00:00;1.40;99.90
51914;DHT22;37940;53.002;6.930;2022-11-20T17:02:26;1.00;99.90
51914;DHT22;37940;53.002;6.930;2022-11-20T17:04:52;1.30;99.90
51914;DHT22;37940;53.002;6.930;2022-11-20T17:07:18;1.40;99.90
51914;DHT22;37940;53.002;6.930;2022-11-20T17:09:44;1.90;99.90
51914;DHT22;37940;53.002;6.930;2022-11-20T17:12:10;0.90;99.90
51914;DHT22;37940;53.002;6.930;2022-11-20T17:14:35;0.90;99.90
51914;DHT22;37940;53.002;6.930;2022-11-20T17:17:01;0.90;99.90
51914;DHT22;37940;53.002;6.930;2022-11-20T17:19:27;0.90;99.90